sensor_id;sensor_type;location;lat;lon;timestamp;P1;durP1;ratioP1;P2;durP2;ratioP2
64986;SDS011;67903;52.108;9.358;2023-04-29T00:01:39;18.40;;;15.85;;
64986;SDS011;67903;52.108;9.358;2023-04-29T00:04:26;17.98;;;16.05;;
64986;SDS011;67903;52.108;9.358;2023-04-29T00:07:14;21.58;;;17.48;;
64986;SDS011;67903;52.108;9.358;2023-04-29T00:10:01;22.38;;;17.27;;
64986;SDS011;67903;52.108;9.358;2023-04-29T00:12:49;26.45;;;19.88;;
64986;SDS011;67903;52.108;9.358;2023-04-29T00:15:37;25.10;;;19.50;;
64986;SDS011;67903;52.108;9.358;2023-04-29T00:18:24;26.60;;;20.75;;
64986;SDS011;67903;52.108;9.358;2023-04-29T00:21:11;24.63;;;19.80;;
64986;SDS011;67903;52.108;9.358;2023-04-29T00:23:58;24.42;;;20.33;;
64986;SDS011;67903;52.108;9.358;2023-04-29T00:26:46;26.98;;;21.38;;
64986;SDS011;67903;52.108;9.358;2023-04-29T00:29:33;28.52;;;21.75;;
64986;SDS011;67903;52.108;9.358;2023-04-29T00:32:20;27.67;;;21.20;;
64986;SDS011;67903;52.108;9.358;2023-04-29T00:35:08;30.48;;;22.58;;
64986;SDS011;67903;52.108;9.358;2023-04-29T00:37:55;29.08;;;22.33;;
64986;SDS011;67903;52.108;9.358;2023-04-29T00:40:43;29.00;;;22.20;;
64986;SDS011;67903;52.108;9.358;2023-04-29T00:43:30;27.42;;;22.08;;
64986;SDS011;67903;52.108;9.358;2023-04-29T00:46:18;30.70;;;23.27;;
64986;SDS011;67903;52.108;9.358;2023-04-29T00:49:05;30.40;;;24.00;;
64986;SDS011;67903;52.108;9.358;2023-04-29T00:51:54;31.33;;;24.02;;
64986;SDS011;67903;52.108;9.358;2023-04-29T00:54:43;30.05;;;22.92;;
64986;SDS011;67903;52.108;9.358;2023-04-29T00:57:30;33.25;;;24.27;;
64986;SDS011;67903;52.108;9.358;2023-04-29T01:00:19;31.23;;;24.75;;
64986;SDS011;67903;52.108;9.358;2023-04-29T01:03:07;29.17;;;21.98;;
64986;SDS011;67903;52.108;9.358;2023-04-29T01:06:03;29.85;;;23.13;;
64986;SDS011;67903;52.108;9.358;2023-04-29T01:12:45;31.08;;;22.00;;
64986;SDS011;67903;52.108;9.358;2023-04-29T01:16:02;30.70;;;21.65;;
64986;SDS011;67903;52.108;9.358;2023-04-29T01:18:52;29.42;;;21.35;;
64986;SDS011;67903;52.108;9.358;2023-04-29T01:21:47;26.70;;;20.58;;
64986;SDS011;67903;52.108;9.358;2023-04-29T01:24:35;28.67;;;20.17;;
64986;SDS011;67903;52.108;9.358;2023-04-29T01:27:29;26.58;;;21.67;;
64986;SDS011;67903;52.108;9.358;2023-04-29T01:36:45;29.00;;;22.13;;
64986;SDS011;67903;52.108;9.358;2023-04-29T01:40:04;28.98;;;21.58;;
64986;SDS011;67903;52.108;9.358;2023-04-29T01:43:07;27.30;;;19.52;;
64986;SDS011;67903;52.108;9.358;2023-04-29T01:46:00;26.33;;;19.27;;
64986;SDS011;67903;52.108;9.358;2023-04-29T01:48:53;28.40;;;20.17;;
64986;SDS011;67903;52.108;9.358;2023-04-29T01:51:41;26.55;;;20.00;;
64986;SDS011;67903;52.108;9.358;2023-04-29T01:54:28;30.27;;;21.10;;
64986;SDS011;67903;52.108;9.358;2023-04-29T01:57:16;29.67;;;21.33;;
64986;SDS011;67903;52.108;9.358;2023-04-29T02:00:15;26.92;;;19.25;;
64986;SDS011;67903;52.108;9.358;2023-04-29T02:03:08;28.17;;;21.15;;
64986;SDS011;67903;52.108;9.358;2023-04-29T02:05:59;29.15;;;21.02;;
64986;SDS011;67903;52.108;9.358;2023-04-29T02:08:47;31.33;;;21.33;;
64986;SDS011;67903;52.108;9.358;2023-04-29T02:11:35;29.77;;;21.27;;
64986;SDS011;67903;52.108;9.358;2023-04-29T02:14:22;29.55;;;19.95;;
64986;SDS011;67903;52.108;9.358;2023-04-29T02:17:10;28.60;;;21.63;;
64986;SDS011;67903;52.108;9.358;2023-04-29T02:20:00;32.47;;;21.52;;
64986;SDS011;67903;52.108;9.358;2023-04-29T02:22:47;32.05;;;21.83;;
64986;SDS011;67903;52.108;9.358;2023-04-29T02:25:35;31.27;;;21.83;;
64986;SDS011;67903;52.108;9.358;2023-04-29T02:28:22;32.53;;;21.35;;
64986;SDS011;67903;52.108;9.358;2023-04-29T02:31:09;32.85;;;23.63;;
64986;SDS011;67903;52.108;9.358;2023-04-29T02:33:56;35.40;;;22.92;;
64986;SDS011;67903;52.108;9.358;2023-04-29T02:36:43;37.58;;;24.35;;
64986;SDS011;67903;52.108;9.358;2023-04-29T02:39:31;35.13;;;23.58;;
64986;SDS011;67903;52.108;9.358;2023-04-29T02:42:18;36.58;;;25.10;;
64986;SDS011;67903;52.108;9.358;2023-04-29T02:45:06;35.90;;;24.33;;
64986;SDS011;67903;52.108;9.358;2023-04-29T02:47:53;37.35;;;24.45;;
64986;SDS011;67903;52.108;9.358;2023-04-29T02:50:41;37.55;;;23.85;;
64986;SDS011;67903;52.108;9.358;2023-04-29T02:53:28;41.95;;;25.25;;
64986;SDS011;67903;52.108;9.358;2023-04-29T02:56:15;38.70;;;23.38;;
64986;SDS011;67903;52.108;9.358;2023-04-29T02:59:02;34.63;;;22.63;;
64986;SDS011;67903;52.108;9.358;2023-04-29T03:01:49;38.13;;;23.85;;
64986;SDS011;67903;52.108;9.358;2023-04-29T03:04:36;33.58;;;23.15;;
64986;SDS011;67903;52.108;9.358;2023-04-29T03:07:25;35.47;;;22.58;;
64986;SDS011;67903;52.108;9.358;2023-04-29T03:10:13;34.33;;;21.90;;
64986;SDS011;67903;52.108;9.358;2023-04-29T03:13:00;35.47;;;21.75;;
64986;SDS011;67903;52.108;9.358;2023-04-29T03:15:51;35.88;;;21.42;;
64986;SDS011;67903;52.108;9.358;2023-04-29T03:18:38;32.97;;;20.33;;
64986;SDS011;67903;52.108;9.358;2023-04-29T03:21:26;29.02;;;20.75;;
64986;SDS011;67903;52.108;9.358;2023-04-29T03:24:15;29.85;;;20.13;;
64986;SDS011;67903;52.108;9.358;2023-04-29T03:27:02;28.17;;;19.65;;
64986;SDS011;67903;52.108;9.358;2023-04-29T03:29:51;26.35;;;17.23;;
64986;SDS011;67903;52.108;9.358;2023-04-29T03:32:39;28.00;;;18.20;;
64986;SDS011;67903;52.108;9.358;2023-04-29T03:35:26;26.98;;;17.00;;
64986;SDS011;67903;52.108;9.358;2023-04-29T03:38:32;24.25;;;18.60;;
64986;SDS011;67903;52.108;9.358;2023-04-29T03:41:20;26.52;;;18.23;;
64986;SDS011;67903;52.108;9.358;2023-04-29T03:44:09;27.92;;;19.98;;
64986;SDS011;67903;52.108;9.358;2023-04-29T03:46:58;29.13;;;21.50;;
64986;SDS011;67903;52.108;9.358;2023-04-29T03:49:45;31.85;;;21.70;;
64986;SDS011;67903;52.108;9.358;2023-04-29T03:52:32;27.35;;;21.90;;
64986;SDS011;67903;52.108;9.358;2023-04-29T03:55:25;24.85;;;19.85;;
64986;SDS011;67903;52.108;9.358;2023-04-29T03:58:13;27.10;;;21.05;;
64986;SDS011;67903;52.108;9.358;2023-04-29T04:01:01;27.35;;;21.58;;
64986;SDS011;67903;52.108;9.358;2023-04-29T04:03:56;27.00;;;21.58;;
64986;SDS011;67903;52.108;9.358;2023-04-29T04:06:44;30.10;;;21.83;;
64986;SDS011;67903;52.108;9.358;2023-04-29T04:09:39;27.77;;;22.02;;
64986;SDS011;67903;52.108;9.358;2023-04-29T04:12:26;33.50;;;23.02;;
64986;SDS011;67903;52.108;9.358;2023-04-29T04:15:13;32.95;;;23.90;;
64986;SDS011;67903;52.108;9.358;2023-04-29T04:18:00;30.38;;;24.42;;
64986;SDS011;67903;52.108;9.358;2023-04-29T04:20:47;30.20;;;24.30;;
64986;SDS011;67903;52.108;9.358;2023-04-29T04:23:34;32.80;;;25.73;;
64986;SDS011;67903;52.108;9.358;2023-04-29T04:26:23;34.45;;;26.10;;
64986;SDS011;67903;52.108;9.358;2023-04-29T04:29:33;33.38;;;26.30;;
64986;SDS011;67903;52.108;9.358;2023-04-29T04:32:25;33.60;;;26.17;;
64986;SDS011;67903;52.108;9.358;2023-04-29T04:35:12;36.13;;;28.23;;
64986;SDS011;67903;52.108;9.358;2023-04-29T04:38:00;36.95;;;28.27;;
64986;SDS011;67903;52.108;9.358;2023-04-29T04:40:47;35.20;;;27.95;;
64986;SDS011;67903;52.108;9.358;2023-04-29T04:43:55;34.15;;;26.77;;
64986;SDS011;67903;52.108;9.358;2023-04-29T04:46:53;39.58;;;27.50;;
64986;SDS011;67903;52.108;9.358;2023-04-29T04:50:02;41.35;;;29.75;;
64986;SDS011;67903;52.108;9.358;2023-04-29T04:52:50;38.58;;;28.02;;
64986;SDS011;67903;52.108;9.358;2023-04-29T04:56:01;40.13;;;28.33;;
64986;SDS011;67903;52.108;9.358;2023-04-29T04:58:50;39.13;;;29.35;;
64986;SDS011;67903;52.108;9.358;2023-04-29T05:01:37;40.13;;;29.00;;
64986;SDS011;67903;52.108;9.358;2023-04-29T05:04:24;40.45;;;28.98;;
64986;SDS011;67903;52.108;9.358;2023-04-29T05:07:11;41.55;;;29.52;;
64986;SDS011;67903;52.108;9.358;2023-04-29T05:10:19;38.15;;;27.95;;
64986;SDS011;67903;52.108;9.358;2023-04-29T05:13:11;39.92;;;28.50;;
64986;SDS011;67903;52.108;9.358;2023-04-29T05:16:01;40.00;;;28.20;;
64986;SDS011;67903;52.108;9.358;2023-04-29T05:18:52;44.47;;;30.25;;
64986;SDS011;67903;52.108;9.358;2023-04-29T05:21:42;43.75;;;30.42;;
64986;SDS011;67903;52.108;9.358;2023-04-29T05:24:31;46.75;;;30.25;;
64986;SDS011;67903;52.108;9.358;2023-04-29T05:27:18;46.58;;;31.65;;
64986;SDS011;67903;52.108;9.358;2023-04-29T05:30:06;45.30;;;30.55;;
64986;SDS011;67903;52.108;9.358;2023-04-29T05:32:53;44.42;;;30.00;;
64986;SDS011;67903;52.108;9.358;2023-04-29T05:35:41;44.05;;;29.58;;
64986;SDS011;67903;52.108;9.358;2023-04-29T05:38:29;42.90;;;30.00;;
64986;SDS011;67903;52.108;9.358;2023-04-29T05:41:21;46.33;;;29.65;;
64986;SDS011;67903;52.108;9.358;2023-04-29T05:44:28;50.33;;;34.38;;
64986;SDS011;67903;52.108;9.358;2023-04-29T05:47:15;41.92;;;29.50;;
64986;SDS011;67903;52.108;9.358;2023-04-29T05:50:03;42.97;;;29.35;;
64986;SDS011;67903;52.108;9.358;2023-04-29T05:52:50;50.67;;;33.53;;
64986;SDS011;67903;52.108;9.358;2023-04-29T05:55:38;42.63;;;30.70;;
64986;SDS011;67903;52.108;9.358;2023-04-29T05:58:25;47.53;;;32.38;;
64986;SDS011;67903;52.108;9.358;2023-04-29T06:01:13;47.92;;;32.70;;
64986;SDS011;67903;52.108;9.358;2023-04-29T06:04:00;47.42;;;33.00;;
64986;SDS011;67903;52.108;9.358;2023-04-29T06:06:57;52.97;;;35.40;;
64986;SDS011;67903;52.108;9.358;2023-04-29T06:10:03;49.78;;;33.97;;
64986;SDS011;67903;52.108;9.358;2023-04-29T06:12:51;54.67;;;35.70;;
64986;SDS011;67903;52.108;9.358;2023-04-29T06:15:39;55.72;;;36.92;;
64986;SDS011;67903;52.108;9.358;2023-04-29T06:18:26;57.05;;;38.30;;
64986;SDS011;67903;52.108;9.358;2023-04-29T06:21:13;60.28;;;40.47;;
64986;SDS011;67903;52.108;9.358;2023-04-29T06:24:02;55.75;;;37.70;;
64986;SDS011;67903;52.108;9.358;2023-04-29T06:26:49;54.83;;;37.80;;
64986;SDS011;67903;52.108;9.358;2023-04-29T06:29:36;61.63;;;39.83;;
64986;SDS011;67903;52.108;9.358;2023-04-29T06:32:24;55.95;;;38.55;;
64986;SDS011;67903;52.108;9.358;2023-04-29T06:35:11;56.30;;;36.80;;
64986;SDS011;67903;52.108;9.358;2023-04-29T06:38:16;58.13;;;38.35;;
64986;SDS011;67903;52.108;9.358;2023-04-29T06:41:22;53.88;;;38.67;;
64986;SDS011;67903;52.108;9.358;2023-04-29T06:44:12;55.05;;;38.30;;
64986;SDS011;67903;52.108;9.358;2023-04-29T06:47:21;55.55;;;39.85;;
64986;SDS011;67903;52.108;9.358;2023-04-29T06:50:27;61.22;;;42.00;;
64986;SDS011;67903;52.108;9.358;2023-04-29T06:53:14;62.08;;;42.08;;
64986;SDS011;67903;52.108;9.358;2023-04-29T06:56:01;54.58;;;38.85;;
64986;SDS011;67903;52.108;9.358;2023-04-29T06:58:48;54.10;;;39.92;;
64986;SDS011;67903;52.108;9.358;2023-04-29T07:01:35;54.47;;;39.13;;
64986;SDS011;67903;52.108;9.358;2023-04-29T07:04:23;56.78;;;40.10;;
64986;SDS011;67903;52.108;9.358;2023-04-29T07:07:10;54.60;;;39.15;;
64986;SDS011;67903;52.108;9.358;2023-04-29T07:09:57;52.22;;;38.65;;
64986;SDS011;67903;52.108;9.358;2023-04-29T07:12:45;45.85;;;34.80;;
64986;SDS011;67903;52.108;9.358;2023-04-29T07:15:34;45.75;;;34.67;;
64986;SDS011;67903;52.108;9.358;2023-04-29T07:18:22;42.35;;;32.55;;
64986;SDS011;67903;52.108;9.358;2023-04-29T07:21:09;37.38;;;28.75;;
64986;SDS011;67903;52.108;9.358;2023-04-29T07:23:56;37.35;;;29.90;;
64986;SDS011;67903;52.108;9.358;2023-04-29T07:26:47;32.75;;;27.60;;
64986;SDS011;67903;52.108;9.358;2023-04-29T07:29:35;32.60;;;27.75;;
64986;SDS011;67903;52.108;9.358;2023-04-29T07:32:24;31.02;;;26.27;;
64986;SDS011;67903;52.108;9.358;2023-04-29T07:35:11;34.25;;;27.92;;
64986;SDS011;67903;52.108;9.358;2023-04-29T07:37:58;33.88;;;27.05;;
64986;SDS011;67903;52.108;9.358;2023-04-29T07:40:45;31.02;;;26.50;;
64986;SDS011;67903;52.108;9.358;2023-04-29T07:43:32;28.52;;;25.23;;
64986;SDS011;67903;52.108;9.358;2023-04-29T07:46:19;33.83;;;26.10;;
64986;SDS011;67903;52.108;9.358;2023-04-29T07:49:07;33.10;;;27.67;;
64986;SDS011;67903;52.108;9.358;2023-04-29T07:51:55;32.92;;;27.40;;
64986;SDS011;67903;52.108;9.358;2023-04-29T07:54:42;44.05;;;36.13;;
64986;SDS011;67903;52.108;9.358;2023-04-29T07:57:29;27.42;;;24.17;;
64986;SDS011;67903;52.108;9.358;2023-04-29T08:00:16;28.45;;;24.27;;
64986;SDS011;67903;52.108;9.358;2023-04-29T08:03:06;33.42;;;28.05;;
64986;SDS011;67903;52.108;9.358;2023-04-29T08:05:53;29.15;;;25.98;;
64986;SDS011;67903;52.108;9.358;2023-04-29T08:08:42;27.85;;;24.83;;
64986;SDS011;67903;52.108;9.358;2023-04-29T08:11:29;29.33;;;25.65;;
64986;SDS011;67903;52.108;9.358;2023-04-29T08:14:16;26.63;;;23.48;;
64986;SDS011;67903;52.108;9.358;2023-04-29T08:17:03;28.75;;;25.63;;
64986;SDS011;67903;52.108;9.358;2023-04-29T08:19:51;41.78;;;33.42;;
64986;SDS011;67903;52.108;9.358;2023-04-29T08:22:38;23.52;;;20.42;;
64986;SDS011;67903;52.108;9.358;2023-04-29T08:25:25;22.25;;;20.00;;
64986;SDS011;67903;52.108;9.358;2023-04-29T08:28:12;24.30;;;21.80;;
64986;SDS011;67903;52.108;9.358;2023-04-29T08:30:59;20.92;;;18.83;;
64986;SDS011;67903;52.108;9.358;2023-04-29T08:33:47;20.25;;;18.15;;
64986;SDS011;67903;52.108;9.358;2023-04-29T08:36:34;19.92;;;17.92;;
64986;SDS011;67903;52.108;9.358;2023-04-29T08:39:24;18.80;;;16.77;;
64986;SDS011;67903;52.108;9.358;2023-04-29T08:42:11;18.20;;;16.50;;
64986;SDS011;67903;52.108;9.358;2023-04-29T08:44:59;18.17;;;16.25;;
64986;SDS011;67903;52.108;9.358;2023-04-29T08:47:47;16.40;;;14.80;;
64986;SDS011;67903;52.108;9.358;2023-04-29T08:50:36;16.77;;;14.85;;
64986;SDS011;67903;52.108;9.358;2023-04-29T08:53:26;15.80;;;14.30;;
64986;SDS011;67903;52.108;9.358;2023-04-29T08:56:15;16.13;;;14.52;;
64986;SDS011;67903;52.108;9.358;2023-04-29T08:59:08;17.05;;;15.27;;
64986;SDS011;67903;52.108;9.358;2023-04-29T09:01:56;15.00;;;13.52;;
64986;SDS011;67903;52.108;9.358;2023-04-29T09:07:41;12.45;;;11.15;;
64986;SDS011;67903;52.108;9.358;2023-04-29T09:10:29;12.45;;;11.35;;
64986;SDS011;67903;52.108;9.358;2023-04-29T09:16:11;13.20;;;12.00;;
64986;SDS011;67903;52.108;9.358;2023-04-29T09:18:58;14.45;;;12.75;;
64986;SDS011;67903;52.108;9.358;2023-04-29T09:21:47;14.25;;;12.80;;
64986;SDS011;67903;52.108;9.358;2023-04-29T09:24:41;13.00;;;11.63;;
64986;SDS011;67903;52.108;9.358;2023-04-29T09:27:29;13.13;;;11.82;;
64986;SDS011;67903;52.108;9.358;2023-04-29T09:30:16;12.77;;;11.57;;
64986;SDS011;67903;52.108;9.358;2023-04-29T09:35:53;12.45;;;11.15;;
64986;SDS011;67903;52.108;9.358;2023-04-29T09:38:52;11.18;;;10.05;;
64986;SDS011;67903;52.108;9.358;2023-04-29T09:44:40;13.45;;;11.40;;
64986;SDS011;67903;52.108;9.358;2023-04-29T09:47:28;13.35;;;11.50;;
64986;SDS011;67903;52.108;9.358;2023-04-29T09:50:18;12.52;;;11.30;;
64986;SDS011;67903;52.108;9.358;2023-04-29T09:53:06;12.73;;;11.43;;
64986;SDS011;67903;52.108;9.358;2023-04-29T09:58:45;11.15;;;9.75;;
64986;SDS011;67903;52.108;9.358;2023-04-29T10:01:32;10.45;;;9.55;;
64986;SDS011;67903;52.108;9.358;2023-04-29T10:04:21;10.23;;;9.23;;
64986;SDS011;67903;52.108;9.358;2023-04-29T10:07:12;11.18;;;10.07;;
64986;SDS011;67903;52.108;9.358;2023-04-29T10:10:01;12.27;;;11.07;;
64986;SDS011;67903;52.108;9.358;2023-04-29T10:12:54;15.48;;;13.00;;
64986;SDS011;67903;52.108;9.358;2023-04-29T10:15:43;15.50;;;13.90;;
64986;SDS011;67903;52.108;9.358;2023-04-29T10:18:43;14.50;;;12.60;;
64986;SDS011;67903;52.108;9.358;2023-04-29T10:21:35;12.57;;;11.43;;
64986;SDS011;67903;52.108;9.358;2023-04-29T10:24:23;11.88;;;10.68;;
64986;SDS011;67903;52.108;9.358;2023-04-29T10:27:11;12.52;;;11.38;;
64986;SDS011;67903;52.108;9.358;2023-04-29T10:29:59;18.25;;;16.25;;
64986;SDS011;67903;52.108;9.358;2023-04-29T10:32:50;20.10;;;17.98;;
64986;SDS011;67903;52.108;9.358;2023-04-29T10:35:38;19.10;;;16.98;;
64986;SDS011;67903;52.108;9.358;2023-04-29T10:38:29;28.30;;;24.90;;
64986;SDS011;67903;52.108;9.358;2023-04-29T10:41:19;18.55;;;16.67;;
64986;SDS011;67903;52.108;9.358;2023-04-29T10:44:10;18.50;;;16.73;;
64986;SDS011;67903;52.108;9.358;2023-04-29T10:47:17;18.48;;;16.73;;
64986;SDS011;67903;52.108;9.358;2023-04-29T10:50:04;37.67;;;30.63;;
64986;SDS011;67903;52.108;9.358;2023-04-29T10:52:53;19.75;;;17.55;;
64986;SDS011;67903;52.108;9.358;2023-04-29T10:55:41;20.30;;;18.23;;
64986;SDS011;67903;52.108;9.358;2023-04-29T10:58:44;30.05;;;25.38;;
64986;SDS011;67903;52.108;9.358;2023-04-29T11:01:39;19.55;;;17.52;;
64986;SDS011;67903;52.108;9.358;2023-04-29T11:04:28;19.27;;;17.27;;
64986;SDS011;67903;52.108;9.358;2023-04-29T11:07:26;17.55;;;15.85;;
64986;SDS011;67903;52.108;9.358;2023-04-29T11:10:15;18.90;;;17.00;;
64986;SDS011;67903;52.108;9.358;2023-04-29T11:13:19;18.63;;;16.83;;
64986;SDS011;67903;52.108;9.358;2023-04-29T11:16:09;19.02;;;17.23;;
64986;SDS011;67903;52.108;9.358;2023-04-29T11:19:04;20.27;;;18.25;;
64986;SDS011;67903;52.108;9.358;2023-04-29T11:22:08;20.88;;;18.77;;
64986;SDS011;67903;52.108;9.358;2023-04-29T11:25:09;19.65;;;17.63;;
64986;SDS011;67903;52.108;9.358;2023-04-29T11:27:57;17.95;;;16.13;;
64986;SDS011;67903;52.108;9.358;2023-04-29T11:30:47;18.70;;;16.90;;
64986;SDS011;67903;52.108;9.358;2023-04-29T11:33:36;18.30;;;16.40;;
64986;SDS011;67903;52.108;9.358;2023-04-29T11:36:24;16.92;;;15.20;;
64986;SDS011;67903;52.108;9.358;2023-04-29T11:39:11;16.60;;;14.98;;
64986;SDS011;67903;52.108;9.358;2023-04-29T11:42:04;17.25;;;15.55;;
64986;SDS011;67903;52.108;9.358;2023-04-29T11:44:56;17.20;;;15.50;;
64986;SDS011;67903;52.108;9.358;2023-04-29T11:47:45;16.95;;;15.07;;
64986;SDS011;67903;52.108;9.358;2023-04-29T11:50:33;17.48;;;15.88;;
64986;SDS011;67903;52.108;9.358;2023-04-29T11:53:23;16.58;;;14.98;;
64986;SDS011;67903;52.108;9.358;2023-04-29T11:56:11;13.85;;;12.55;;
64986;SDS011;67903;52.108;9.358;2023-04-29T11:58:58;13.57;;;12.23;;
64986;SDS011;67903;52.108;9.358;2023-04-29T12:01:48;13.82;;;12.52;;
64986;SDS011;67903;52.108;9.358;2023-04-29T12:04:44;13.05;;;11.35;;
64986;SDS011;67903;52.108;9.358;2023-04-29T12:07:34;14.45;;;11.57;;
64986;SDS011;67903;52.108;9.358;2023-04-29T12:10:22;12.18;;;10.98;;
64986;SDS011;67903;52.108;9.358;2023-04-29T12:13:09;12.38;;;11.10;;
64986;SDS011;67903;52.108;9.358;2023-04-29T12:15:57;11.88;;;10.65;;
64986;SDS011;67903;52.108;9.358;2023-04-29T12:18:45;11.35;;;10.23;;
64986;SDS011;67903;52.108;9.358;2023-04-29T12:21:32;10.85;;;9.85;;
64986;SDS011;67903;52.108;9.358;2023-04-29T12:24:20;10.68;;;9.68;;
64986;SDS011;67903;52.108;9.358;2023-04-29T12:27:08;10.95;;;9.88;;
64986;SDS011;67903;52.108;9.358;2023-04-29T12:29:56;12.77;;;11.13;;
64986;SDS011;67903;52.108;9.358;2023-04-29T12:32:43;12.02;;;10.30;;
64986;SDS011;67903;52.108;9.358;2023-04-29T12:35:31;10.95;;;9.95;;
64986;SDS011;67903;52.108;9.358;2023-04-29T12:38:21;10.80;;;9.90;;
64986;SDS011;67903;52.108;9.358;2023-04-29T12:41:13;12.00;;;10.75;;
64986;SDS011;67903;52.108;9.358;2023-04-29T12:44:03;11.77;;;10.52;;
64986;SDS011;67903;52.108;9.358;2023-04-29T12:46:51;11.02;;;10.05;;
64986;SDS011;67903;52.108;9.358;2023-04-29T12:49:42;10.80;;;9.80;;
64986;SDS011;67903;52.108;9.358;2023-04-29T12:52:30;11.15;;;9.98;;
64986;SDS011;67903;52.108;9.358;2023-04-29T12:55:19;10.88;;;9.75;;
64986;SDS011;67903;52.108;9.358;2023-04-29T12:58:06;11.80;;;9.80;;
64986;SDS011;67903;52.108;9.358;2023-04-29T13:00:55;13.25;;;10.35;;
64986;SDS011;67903;52.108;9.358;2023-04-29T13:03:43;11.65;;;9.43;;
64986;SDS011;67903;52.108;9.358;2023-04-29T13:06:31;11.05;;;9.95;;
64986;SDS011;67903;52.108;9.358;2023-04-29T13:09:18;11.32;;;10.13;;
64986;SDS011;67903;52.108;9.358;2023-04-29T13:12:05;9.98;;;8.98;;
64986;SDS011;67903;52.108;9.358;2023-04-29T13:14:53;10.07;;;9.05;;
64986;SDS011;67903;52.108;9.358;2023-04-29T13:17:44;10.63;;;9.63;;
64986;SDS011;67903;52.108;9.358;2023-04-29T13:20:31;81.63;;;60.97;;
64986;SDS011;67903;52.108;9.358;2023-04-29T13:23:27;12.52;;;10.07;;
64986;SDS011;67903;52.108;9.358;2023-04-29T13:26:14;9.27;;;8.02;;
64986;SDS011;67903;52.108;9.358;2023-04-29T13:29:01;9.88;;;8.30;;
64986;SDS011;67903;52.108;9.358;2023-04-29T13:31:49;9.18;;;8.15;;
64986;SDS011;67903;52.108;9.358;2023-04-29T13:34:36;10.65;;;9.00;;
64986;SDS011;67903;52.108;9.358;2023-04-29T13:37:23;10.02;;;8.85;;
64986;SDS011;67903;52.108;9.358;2023-04-29T13:40:11;10.48;;;9.48;;
64986;SDS011;67903;52.108;9.358;2023-04-29T13:43:06;10.82;;;9.55;;
64986;SDS011;67903;52.108;9.358;2023-04-29T13:45:56;10.68;;;9.07;;
64986;SDS011;67903;52.108;9.358;2023-04-29T13:48:43;8.65;;;7.75;;
64986;SDS011;67903;52.108;9.358;2023-04-29T13:51:50;8.65;;;7.72;;
64986;SDS011;67903;52.108;9.358;2023-04-29T13:54:40;8.38;;;7.57;;
64986;SDS011;67903;52.108;9.358;2023-04-29T13:57:30;9.20;;;7.75;;
64986;SDS011;67903;52.108;9.358;2023-04-29T14:00:20;8.05;;;7.30;;
64986;SDS011;67903;52.108;9.358;2023-04-29T14:03:27;8.57;;;7.50;;
64986;SDS011;67903;52.108;9.358;2023-04-29T14:06:15;7.43;;;6.70;;
64986;SDS011;67903;52.108;9.358;2023-04-29T14:09:03;9.00;;;8.20;;
64986;SDS011;67903;52.108;9.358;2023-04-29T14:11:50;10.13;;;8.23;;
64986;SDS011;67903;52.108;9.358;2023-04-29T14:14:37;9.88;;;8.65;;
64986;SDS011;67903;52.108;9.358;2023-04-29T14:17:24;8.35;;;7.53;;
64986;SDS011;67903;52.108;9.358;2023-04-29T14:20:12;8.57;;;7.25;;
64986;SDS011;67903;52.108;9.358;2023-04-29T14:22:59;9.88;;;8.13;;
64986;SDS011;67903;52.108;9.358;2023-04-29T14:25:47;11.27;;;8.43;;
64986;SDS011;67903;52.108;9.358;2023-04-29T14:28:34;8.02;;;7.22;;
64986;SDS011;67903;52.108;9.358;2023-04-29T14:31:22;7.57;;;6.13;;
64986;SDS011;67903;52.108;9.358;2023-04-29T14:34:10;6.93;;;6.15;;
64986;SDS011;67903;52.108;9.358;2023-04-29T14:36:58;7.22;;;6.25;;
64986;SDS011;67903;52.108;9.358;2023-04-29T14:39:46;6.63;;;5.80;;
64986;SDS011;67903;52.108;9.358;2023-04-29T14:42:33;7.68;;;5.90;;
64986;SDS011;67903;52.108;9.358;2023-04-29T14:45:20;7.60;;;6.40;;
64986;SDS011;67903;52.108;9.358;2023-04-29T14:48:07;6.80;;;5.82;;
64986;SDS011;67903;52.108;9.358;2023-04-29T14:50:55;7.15;;;5.65;;
64986;SDS011;67903;52.108;9.358;2023-04-29T14:53:42;6.28;;;5.63;;
64986;SDS011;67903;52.108;9.358;2023-04-29T14:56:29;7.28;;;6.00;;
64986;SDS011;67903;52.108;9.358;2023-04-29T14:59:16;5.75;;;5.15;;
64986;SDS011;67903;52.108;9.358;2023-04-29T15:02:03;5.65;;;5.07;;
64986;SDS011;67903;52.108;9.358;2023-04-29T15:04:50;6.22;;;5.47;;
64986;SDS011;67903;52.108;9.358;2023-04-29T15:07:38;6.40;;;5.07;;
64986;SDS011;67903;52.108;9.358;2023-04-29T15:10:25;5.10;;;4.60;;
64986;SDS011;67903;52.108;9.358;2023-04-29T15:13:13;4.75;;;4.28;;
64986;SDS011;67903;52.108;9.358;2023-04-29T15:16:00;4.82;;;4.28;;
64986;SDS011;67903;52.108;9.358;2023-04-29T15:18:47;5.80;;;4.63;;
64986;SDS011;67903;52.108;9.358;2023-04-29T15:21:34;6.00;;;4.65;;
64986;SDS011;67903;52.108;9.358;2023-04-29T15:24:21;6.35;;;5.40;;
64986;SDS011;67903;52.108;9.358;2023-04-29T15:27:08;5.10;;;4.57;;
64986;SDS011;67903;52.108;9.358;2023-04-29T15:29:55;5.68;;;5.05;;
64986;SDS011;67903;52.108;9.358;2023-04-29T15:32:43;5.35;;;4.70;;
64986;SDS011;67903;52.108;9.358;2023-04-29T15:35:30;6.22;;;4.28;;
64986;SDS011;67903;52.108;9.358;2023-04-29T15:38:17;4.78;;;4.13;;
64986;SDS011;67903;52.108;9.358;2023-04-29T15:41:04;4.72;;;4.30;;
64986;SDS011;67903;52.108;9.358;2023-04-29T15:43:52;4.50;;;4.07;;
64986;SDS011;67903;52.108;9.358;2023-04-29T15:46:40;4.45;;;3.90;;
64986;SDS011;67903;52.108;9.358;2023-04-29T15:49:27;3.92;;;3.63;;
64986;SDS011;67903;52.108;9.358;2023-04-29T15:52:14;4.10;;;3.72;;
64986;SDS011;67903;52.108;9.358;2023-04-29T15:55:01;4.63;;;4.00;;
64986;SDS011;67903;52.108;9.358;2023-04-29T15:57:48;5.30;;;4.03;;
64986;SDS011;67903;52.108;9.358;2023-04-29T16:00:36;4.25;;;3.85;;
64986;SDS011;67903;52.108;9.358;2023-04-29T16:03:24;4.63;;;3.90;;
64986;SDS011;67903;52.108;9.358;2023-04-29T16:06:12;5.85;;;5.10;;
64986;SDS011;67903;52.108;9.358;2023-04-29T16:09:01;5.82;;;5.32;;
64986;SDS011;67903;52.108;9.358;2023-04-29T16:11:49;5.88;;;5.20;;
64986;SDS011;67903;52.108;9.358;2023-04-29T16:14:38;7.40;;;5.30;;
64986;SDS011;67903;52.108;9.358;2023-04-29T16:17:25;6.60;;;5.38;;
64986;SDS011;67903;52.108;9.358;2023-04-29T16:20:13;6.13;;;5.50;;
64986;SDS011;67903;52.108;9.358;2023-04-29T16:23:00;6.95;;;5.93;;
64986;SDS011;67903;52.108;9.358;2023-04-29T16:25:47;6.72;;;5.93;;
64986;SDS011;67903;52.108;9.358;2023-04-29T16:28:34;7.00;;;6.18;;
64986;SDS011;67903;52.108;9.358;2023-04-29T16:31:21;7.88;;;6.40;;
64986;SDS011;67903;52.108;9.358;2023-04-29T16:34:09;6.50;;;5.60;;
64986;SDS011;67903;52.108;9.358;2023-04-29T16:36:57;7.40;;;6.10;;
64986;SDS011;67903;52.108;9.358;2023-04-29T16:39:44;6.15;;;5.40;;
64986;SDS011;67903;52.108;9.358;2023-04-29T16:42:31;5.88;;;5.13;;
64986;SDS011;67903;52.108;9.358;2023-04-29T16:45:18;5.90;;;5.18;;
64986;SDS011;67903;52.108;9.358;2023-04-29T16:48:09;6.80;;;5.32;;
64986;SDS011;67903;52.108;9.358;2023-04-29T16:50:56;5.97;;;5.38;;
64986;SDS011;67903;52.108;9.358;2023-04-29T16:53:44;5.82;;;5.32;;
64986;SDS011;67903;52.108;9.358;2023-04-29T16:56:31;5.88;;;5.28;;
64986;SDS011;67903;52.108;9.358;2023-04-29T16:59:18;7.45;;;5.90;;
64986;SDS011;67903;52.108;9.358;2023-04-29T17:02:05;6.45;;;5.60;;
64986;SDS011;67903;52.108;9.358;2023-04-29T17:04:52;6.82;;;5.13;;